createdAt,value
2023-04-16T00:00:41.286Z,75.52
2023-04-16T00:05:49.252Z,75.49
2023-04-16T00:10:57.718Z,75.46
2023-04-16T00:16:05.211Z,75.37
2023-04-16T00:21:13.717Z,75.32
2023-04-16T00:26:22.184Z,75.28
2023-04-16T00:31:34.385Z,75.24
2023-04-16T00:36:44.686Z,75.21
2023-04-16T00:41:53.103Z,75.18
2023-04-16T00:47:01.766Z,75.17
2023-04-16T00:52:10.584Z,75.22
2023-04-16T00:57:21.471Z,75.26
2023-04-16T01:02:29.972Z,75.30
2023-04-16T01:07:38.236Z,75.28
2023-04-16T01:12:46.475Z,75.29
2023-04-16T01:17:54.814Z,75.29
2023-04-16T01:23:03.086Z,75.30
2023-04-16T01:28:11.697Z,75.29
2023-04-16T01:33:23.363Z,75.24
2023-04-16T01:38:31.712Z,75.25
2023-04-16T01:43:40.466Z,75.26
2023-04-16T01:48:48.535Z,75.23
2023-04-16T01:53:58.664Z,75.19
2023-04-16T01:59:07.660Z,75.17
2023-04-16T02:04:19.803Z,75.17
2023-04-16T02:09:29.052Z,75.19
2023-04-16T02:14:37.246Z,75.25
2023-04-16T02:19:44.811Z,75.28
2023-04-16T02:24:52.730Z,75.23
2023-04-16T02:30:00.320Z,75.20
2023-04-16T02:35:12.421Z,75.23
2023-04-16T02:40:20.481Z,75.27
2023-04-16T02:45:29.397Z,75.30
2023-04-16T02:50:37.130Z,75.34
2023-04-16T02:55:49.280Z,75.38
2023-04-16T03:00:57.379Z,75.43
2023-04-16T03:06:06.266Z,75.53
2023-04-16T03:11:14.497Z,75.59
2023-04-16T03:16:23.122Z,75.59
2023-04-16T03:21:32.175Z,75.59
2023-04-16T03:26:40.424Z,75.63
2023-04-16T03:31:49.377Z,75.68
2023-04-16T03:36:57.858Z,75.71
2023-04-16T03:42:05.995Z,75.71
2023-04-16T03:47:18.302Z,75.74
2023-04-16T03:52:27.490Z,75.77
2023-04-16T03:57:36.314Z,75.79
2023-04-16T04:02:49.383Z,75.82
2023-04-16T04:07:59.526Z,75.86
2023-04-16T04:13:10.552Z,75.91
2023-04-16T04:18:19.037Z,75.95
2023-04-16T04:23:28.145Z,75.99
2023-04-16T04:28:37.179Z,76.00
2023-04-16T04:33:46.117Z,76.04
2023-04-16T04:38:54.521Z,76.10
2023-04-16T04:44:03.045Z,76.17
2023-04-16T04:49:12.178Z,76.23
2023-04-16T04:54:21.122Z,76.31
2023-04-16T04:59:28.736Z,76.38
2023-04-16T05:04:39.266Z,76.45
2023-04-16T05:09:46.641Z,76.59
2023-04-16T05:14:54.966Z,76.68
2023-04-16T05:20:03.277Z,76.67
2023-04-16T05:25:11.536Z,76.61
2023-04-16T05:30:23.053Z,76.66
2023-04-16T05:35:31.291Z,76.66
2023-04-16T05:40:38.662Z,76.71
2023-04-16T05:45:46.261Z,76.76
2023-04-16T05:50:55.022Z,76.80
2023-04-16T05:56:03.918Z,76.85
2023-04-16T06:01:12.915Z,76.84
2023-04-16T06:06:21.457Z,76.80
2023-04-16T06:11:31.347Z,76.88
2023-04-16T06:16:39.502Z,76.95
2023-04-16T06:21:47.928Z,77.05
2023-04-16T06:27:03.729Z,77.05
2023-04-16T06:32:12.854Z,77.13
2023-04-16T06:37:21.358Z,77.13
2023-04-16T06:42:29.855Z,77.21
2023-04-16T06:47:38.482Z,77.13
2023-04-16T06:52:46.024Z,77.14
2023-04-16T06:57:54.558Z,77.10
2023-04-16T07:03:02.843Z,77.07
2023-04-16T07:08:12.051Z,77.01
2023-04-16T07:13:20.381Z,76.95
2023-04-16T07:18:27.870Z,76.96
2023-04-16T07:23:36.245Z,76.99
2023-04-16T07:28:43.615Z,76.96
2023-04-16T07:33:52.410Z,77.00
2023-04-16T07:38:59.937Z,77.00
2023-04-16T07:44:07.881Z,76.95
2023-04-16T07:49:15.389Z,76.93
2023-04-16T07:54:24.157Z,77.02
2023-04-16T07:59:33.054Z,77.16
2023-04-16T08:04:43.134Z,77.17
2023-04-16T08:09:55.596Z,77.32
2023-04-16T08:15:02.203Z,77.28
2023-04-16T08:20:15.719Z,77.17
2023-04-16T08:25:25.375Z,76.96
2023-04-16T08:30:34.317Z,76.86
2023-04-16T08:35:42.769Z,76.78
2023-04-16T08:40:51.713Z,76.75
2023-04-16T08:46:01.207Z,76.79
2023-04-16T08:51:12.541Z,76.72
2023-04-16T08:56:25.950Z,76.70
2023-04-16T09:01:38.552Z,76.63
2023-04-16T09:06:44.220Z,76.47
2023-04-16T09:11:55.491Z,76.39
2023-04-16T09:17:04.339Z,76.30
2023-04-16T09:22:13.145Z,76.28
2023-04-16T09:27:22.535Z,76.32
2023-04-16T09:32:32.713Z,76.34
2023-04-16T09:37:41.124Z,76.34
2023-04-16T09:42:51.742Z,76.33
2023-04-16T09:48:07.479Z,76.23
2023-04-16T09:53:15.116Z,76.02
2023-04-16T09:58:25.007Z,75.89
2023-04-16T10:03:37.501Z,75.84
2023-04-16T10:08:49.904Z,75.89
2023-04-16T10:13:58.012Z,75.96
2023-04-16T10:19:06.863Z,76.12
2023-04-16T10:24:17.074Z,76.30
2023-04-16T10:29:26.779Z,76.42
2023-04-16T10:34:35.430Z,76.28
2023-04-16T10:39:43.747Z,76.10
2023-04-16T10:44:52.559Z,76.04
2023-04-16T10:50:01.847Z,75.96
2023-04-16T10:55:17.804Z,75.66
2023-04-16T11:00:28.322Z,75.40
2023-04-16T11:05:49.133Z,75.25
2023-04-16T11:11:00.724Z,75.16
2023-04-16T11:16:09.535Z,75.01
2023-04-16T11:21:18.737Z,74.86
2023-04-16T11:26:35.549Z,74.79
2023-04-16T11:31:44.437Z,74.84
2023-04-16T11:36:54.302Z,74.90
2023-04-16T11:42:01.858Z,74.98
2023-04-16T11:47:14.311Z,74.92
2023-04-16T11:52:32.431Z,74.85
2023-04-16T11:57:40.926Z,74.84
2023-04-16T12:02:52.609Z,74.86
2023-04-16T12:08:00.797Z,74.81
2023-04-16T12:13:18.573Z,74.75
2023-04-16T12:18:27.982Z,74.53
2023-04-16T12:23:36.543Z,74.35
2023-04-16T12:28:47.333Z,74.32
2023-04-16T12:34:07.272Z,74.31
2023-04-16T12:39:15.669Z,74.26
2023-04-16T12:44:23.197Z,74.23
2023-04-16T12:49:31.104Z,74.17
2023-04-16T12:54:38.353Z,74.09
2023-04-16T12:59:47.538Z,74.01
2023-04-16T13:04:56.813Z,73.87
2023-04-16T13:10:06.599Z,73.86
2023-04-16T13:15:16.009Z,73.92
2023-04-16T13:20:24.586Z,74.04
2023-04-16T13:25:32.910Z,74.09
2023-04-16T13:30:41.373Z,74.12
2023-04-16T13:35:50.382Z,74.03
2023-04-16T13:40:58.647Z,73.98
2023-04-16T13:46:07.556Z,73.92
2023-04-16T13:51:16.241Z,73.88
2023-04-16T13:56:25.403Z,73.89
2023-04-16T14:01:34.035Z,73.90
2023-04-16T14:06:42.346Z,73.96
2023-04-16T14:11:51.780Z,74.04
2023-04-16T14:17:02.292Z,74.09
2023-04-16T14:22:11.343Z,74.17
2023-04-16T14:27:20.417Z,74.23
2023-04-16T14:32:29.587Z,74.25
2023-04-16T14:37:39.413Z,74.32
2023-04-16T14:42:47.665Z,74.36
2023-04-16T14:47:55.928Z,74.32
2023-04-16T14:53:04.201Z,74.36
2023-04-16T14:58:12.953Z,74.37
2023-04-16T15:03:20.836Z,74.37
2023-04-16T15:08:28.333Z,74.32
2023-04-16T15:13:36.517Z,74.35
2023-04-16T15:18:45.317Z,74.38
2023-04-16T15:23:54.405Z,74.40
2023-04-16T15:29:03.287Z,74.41
2023-04-16T15:34:11.955Z,74.49
2023-04-16T15:39:21.247Z,74.46
2023-04-16T15:44:29.745Z,74.39
2023-04-16T15:49:38.154Z,74.37
2023-04-16T15:54:46.512Z,74.31
2023-04-16T16:00:06.531Z,74.28
2023-04-16T16:05:16.653Z,74.21
2023-04-16T16:10:24.828Z,74.17
2023-04-16T16:15:33.763Z,74.13
2023-04-16T16:20:41.169Z,74.10
2023-04-16T16:25:49.672Z,74.10
2023-04-16T16:31:04.589Z,74.06
2023-04-16T16:36:16.465Z,74.01
2023-04-16T16:41:24.841Z,73.97
2023-04-16T16:46:33.279Z,73.99
2023-04-16T16:51:42.164Z,73.96
2023-04-16T16:56:50.861Z,73.87
2023-04-16T17:01:59.643Z,73.77
2023-04-16T17:07:08.043Z,73.60
2023-04-16T17:12:16.806Z,73.58
2023-04-16T17:17:24.674Z,73.55
2023-04-16T17:22:33.292Z,73.57
2023-04-16T17:27:41.778Z,73.52
2023-04-16T17:32:49.926Z,73.49
2023-04-16T17:37:57.555Z,73.53
2023-04-16T17:43:06.251Z,73.60
2023-04-16T17:48:15.030Z,73.63
2023-04-16T17:53:23.445Z,73.64
2023-04-16T17:58:33.589Z,73.63
2023-04-16T18:03:44.820Z,73.63
2023-04-16T18:08:53.186Z,73.63
2023-04-16T18:14:01.831Z,73.64
2023-04-16T18:19:10.525Z,73.65
2023-04-16T18:24:17.994Z,73.66
2023-04-16T18:29:26.463Z,73.70
2023-04-16T18:34:34.852Z,73.73
2023-04-16T18:39:57.346Z,73.79
2023-04-16T18:45:06.933Z,73.83
2023-04-16T18:50:14.886Z,73.79
2023-04-16T18:55:23.289Z,73.73
2023-04-16T19:00:31.001Z,73.72
2023-04-16T19:05:38.346Z,73.76
2023-04-16T19:10:48.463Z,73.77
2023-04-16T19:16:01.129Z,73.71
2023-04-16T19:21:11.170Z,73.68
2023-04-16T19:26:18.374Z,73.51
2023-04-16T19:31:26.562Z,73.27
2023-04-16T19:36:35.425Z,73.10
2023-04-16T19:41:42.874Z,72.95
2023-04-16T19:46:51.135Z,72.80
2023-04-16T19:51:58.393Z,72.63
2023-04-16T19:57:08.110Z,72.26
2023-04-16T20:02:16.390Z,71.98
2023-04-16T20:07:24.552Z,71.71
2023-04-16T20:12:32.578Z,71.51
2023-04-16T20:17:40.850Z,71.51
2023-04-16T20:22:49.633Z,71.69
2023-04-16T20:27:57.886Z,72.00
2023-04-16T20:33:06.268Z,72.33
2023-04-16T20:38:15.207Z,72.66
2023-04-16T20:43:22.543Z,72.95
2023-04-16T20:48:30.792Z,73.12
2023-04-16T20:53:38.735Z,73.29
2023-04-16T20:58:46.849Z,73.39
2023-04-16T21:03:54.519Z,73.47
2023-04-16T21:09:02.852Z,73.55
2023-04-16T21:14:11.268Z,73.70
2023-04-16T21:19:18.861Z,73.83
2023-04-16T21:24:27.387Z,73.94
2023-04-16T21:29:36.164Z,74.05
2023-04-16T21:34:44.836Z,74.16
2023-04-16T21:39:52.939Z,74.24
2023-04-16T21:45:00.619Z,74.26
2023-04-16T21:50:10.803Z,74.21
2023-04-16T21:55:18.396Z,74.21
2023-04-16T22:00:27.085Z,74.28
2023-04-16T22:05:34.236Z,74.36
2023-04-16T22:10:42.453Z,74.46
2023-04-16T22:15:50.969Z,74.53
2023-04-16T22:20:58.296Z,74.58
2023-04-16T22:26:05.898Z,74.67
2023-04-16T22:31:13.202Z,74.73
2023-04-16T22:36:21.857Z,74.77
2023-04-16T22:41:30.389Z,74.71
2023-04-16T22:46:38.738Z,74.56
2023-04-16T22:51:46.946Z,74.41
2023-04-16T22:56:55.040Z,74.27
2023-04-16T23:02:03.557Z,74.14
2023-04-16T23:07:12.144Z,74.10
2023-04-16T23:12:20.526Z,74.05
2023-04-16T23:17:28.997Z,73.99
2023-04-16T23:22:37.225Z,74.00
2023-04-16T23:27:46.111Z,73.96
2023-04-16T23:32:53.491Z,73.94
2023-04-16T23:38:00.824Z,73.72
2023-04-16T23:43:09.345Z,73.49
2023-04-16T23:48:16.597Z,73.03
2023-04-16T23:53:23.858Z,72.67
2023-04-16T23:58:32.247Z,72.68
